createdAt,value
2023-02-14T00:01:28.588Z,102389.91
2023-02-14T00:04:00.906Z,102388.94
2023-02-14T00:06:29.805Z,102335.13
2023-02-14T00:08:57.934Z,102220.84
2023-02-14T00:11:25.806Z,102395.25
2023-02-14T00:14:11.027Z,102349.66
2023-02-14T00:16:38.888Z,102153.47
2023-02-14T00:19:08.253Z,102383.66
2023-02-14T00:21:37.929Z,102381.47
2023-02-14T00:24:07.507Z,102314.09
2023-02-14T00:26:35.365Z,102395.00
2023-02-14T00:29:03.479Z,102401.00
2023-02-14T00:31:31.342Z,102400.19
2023-02-14T00:33:59.211Z,102391.06
2023-02-14T00:36:30.776Z,102346.28
2023-02-14T00:38:58.735Z,102401.25
2023-02-14T00:41:26.573Z,102384.28
2023-02-14T00:43:55.121Z,102396.13
2023-02-14T00:46:25.585Z,102389.22
2023-02-14T00:48:53.909Z,102397.59
2023-02-14T00:51:22.520Z,102405.53
2023-02-14T00:53:53.155Z,102403.97
2023-02-14T00:56:21.868Z,102412.50
2023-02-14T00:58:50.058Z,102403.88
2023-02-14T01:01:19.744Z,102411.72
2023-02-14T01:03:48.444Z,102358.84
2023-02-14T01:06:17.101Z,102236.78
2023-02-14T01:08:45.326Z,102408.94
2023-02-14T01:11:18.293Z,102404.88
2023-02-14T01:13:48.041Z,102410.81
2023-02-14T01:16:19.058Z,102407.59
2023-02-14T01:18:47.289Z,102413.25
2023-02-14T01:21:20.326Z,102316.84
2023-02-14T01:23:51.508Z,102409.75
2023-02-14T01:26:22.366Z,102412.22
2023-02-14T01:28:50.844Z,102421.56
2023-02-14T01:31:20.953Z,102424.38
2023-02-14T01:33:49.586Z,102419.50
2023-02-14T01:36:19.904Z,102421.59
2023-02-14T01:38:48.332Z,102375.66
2023-02-14T01:41:16.127Z,102400.47
2023-02-14T01:43:58.031Z,102419.38
2023-02-14T01:46:27.945Z,102418.94
2023-02-14T01:49:00.397Z,102419.78
2023-02-14T01:51:30.494Z,102397.09
2023-02-14T01:54:00.342Z,102402.19
2023-02-14T01:56:35.025Z,102254.13
2023-02-14T01:59:08.744Z,102411.56
2023-02-14T02:01:36.933Z,102418.47
2023-02-14T02:04:11.215Z,102363.78
2023-02-14T02:06:42.878Z,102323.72
2023-02-14T02:09:16.276Z,102410.84
2023-02-14T02:11:44.908Z,102407.09
2023-02-14T02:14:19.925Z,102401.78
2023-02-14T02:17:04.423Z,102360.50
2023-02-14T02:20:09.490Z,102395.19
2023-02-14T02:23:11.705Z,102395.81
2023-02-14T02:26:04.530Z,102397.16
2023-02-14T02:29:01.851Z,102387.72
2023-02-14T02:31:55.130Z,102385.38
2023-02-14T02:34:39.055Z,102378.34
2023-02-14T02:37:30.915Z,102382.72
2023-02-14T02:40:12.022Z,102381.69
2023-02-14T02:42:50.607Z,102359.09
2023-02-14T02:45:27.403Z,102373.78
2023-02-14T02:48:06.127Z,102368.84
2023-02-14T02:50:56.528Z,102315.22
2023-02-14T02:53:33.445Z,102236.16
2023-02-14T02:56:22.453Z,102364.44
2023-02-14T02:58:56.940Z,102368.88
2023-02-14T03:01:29.375Z,102358.25
2023-02-14T03:04:17.262Z,102292.13
2023-02-14T03:06:45.591Z,102327.72
2023-02-14T03:09:55.375Z,102346.16
2023-02-14T03:12:45.300Z,102346.06
2023-02-14T03:15:22.607Z,102349.34
2023-02-14T03:18:02.977Z,102344.13
2023-02-14T03:20:38.398Z,102344.84
2023-02-14T03:23:14.329Z,102339.75
2023-02-14T03:25:53.183Z,102179.41
2023-02-14T03:28:30.509Z,102343.16
2023-02-14T03:31:04.368Z,102346.69
2023-02-14T03:33:41.534Z,102353.94
2023-02-14T03:36:15.649Z,102348.47
2023-02-14T03:38:48.175Z,102342.03
2023-02-14T03:41:22.244Z,102326.41
2023-02-14T03:43:54.399Z,102336.25
2023-02-14T03:46:29.635Z,102335.91
2023-02-14T03:49:01.652Z,102330.16
2023-02-14T03:51:34.268Z,102326.78
2023-02-14T03:54:04.156Z,102319.94
2023-02-14T03:56:39.807Z,102336.41
2023-02-14T03:59:15.300Z,102328.25
2023-02-14T04:01:48.212Z,102328.84
2023-02-14T04:04:21.230Z,102332.84
2023-02-14T04:06:49.448Z,102312.03
2023-02-14T04:09:17.323Z,102305.25
2023-02-14T04:11:50.420Z,102331.38
2023-02-14T04:14:18.574Z,102289.47
2023-02-14T04:17:04.026Z,102324.84
2023-02-14T04:19:31.870Z,102324.03
2023-02-14T04:21:59.736Z,102325.09
2023-02-14T04:24:27.741Z,102324.69
2023-02-14T04:27:10.708Z,102321.63
2023-02-14T04:29:39.847Z,102303.88
2023-02-14T04:32:10.071Z,102313.28
2023-02-14T04:34:39.144Z,102302.75
2023-02-14T04:37:08.060Z,102180.53
2023-02-14T04:39:36.463Z,102314.22
2023-02-14T04:42:06.815Z,102311.63
2023-02-14T04:44:35.052Z,102309.44
2023-02-14T04:47:03.004Z,102281.31
2023-02-14T04:49:30.997Z,102065.19
2023-02-14T04:51:59.185Z,102310.91
2023-02-14T04:54:27.220Z,102304.63
2023-02-14T04:56:55.093Z,102308.38
2023-02-14T04:59:25.068Z,102161.84
2023-02-14T05:01:53.033Z,102305.47
2023-02-14T05:04:21.381Z,102303.66
2023-02-14T05:06:49.527Z,102242.34
2023-02-14T05:09:17.501Z,102299.88
2023-02-14T05:11:45.704Z,102311.97
2023-02-14T05:14:14.100Z,102289.66
2023-02-14T05:16:43.463Z,102295.97
2023-02-14T05:19:11.496Z,102259.28
2023-02-14T05:21:39.452Z,102317.16
2023-02-14T05:24:07.542Z,102299.22
2023-02-14T05:26:35.482Z,102139.09
2023-02-14T05:29:03.282Z,102303.16
2023-02-14T05:31:31.231Z,102305.19
2023-02-14T05:34:00.535Z,102305.38
2023-02-14T05:36:28.451Z,102301.94
2023-02-14T05:38:56.262Z,102302.91
2023-02-14T05:41:24.241Z,102297.41
2023-02-14T05:43:52.420Z,102298.91
2023-02-14T05:46:20.348Z,102274.22
2023-02-14T05:48:48.258Z,102308.34
2023-02-14T05:51:17.463Z,102281.19
2023-02-14T05:53:45.478Z,102312.88
2023-02-14T05:56:13.328Z,102319.28
2023-02-14T05:58:41.228Z,102314.69
2023-02-14T06:01:09.467Z,102303.88
2023-02-14T06:03:37.322Z,102294.25
2023-02-14T06:06:05.618Z,102322.72
2023-02-14T06:08:34.875Z,102316.38
2023-02-14T06:11:02.867Z,102315.47
2023-02-14T06:13:30.834Z,102319.97
2023-02-14T06:15:58.734Z,102318.50
2023-02-14T06:18:29.548Z,102316.69
2023-02-14T06:20:58.130Z,102217.84
2023-02-14T06:23:26.471Z,102322.63
2023-02-14T06:25:56.146Z,102178.16
2023-02-14T06:28:24.012Z,102328.63
2023-02-14T06:30:52.494Z,102314.44
2023-02-14T06:33:20.690Z,102327.97
2023-02-14T06:35:48.518Z,102323.19
2023-02-14T06:38:16.464Z,102326.63
2023-02-14T06:40:44.584Z,102326.13
2023-02-14T06:43:14.015Z,102327.28
2023-02-14T06:45:43.608Z,102333.59
2023-02-14T06:48:11.583Z,102331.94
2023-02-14T06:50:39.543Z,102332.94
2023-02-14T06:53:07.552Z,102339.19
2023-02-14T06:55:35.403Z,102262.03
2023-02-14T06:58:03.524Z,102298.75
2023-02-14T07:00:33.290Z,102205.63
2023-02-14T07:03:01.223Z,102335.63
2023-02-14T07:05:29.509Z,102324.06
2023-02-14T07:07:57.348Z,102302.31
2023-02-14T07:10:25.328Z,102334.88
2023-02-14T07:12:53.166Z,102207.66
2023-02-14T07:15:21.222Z,102335.25
2023-02-14T07:17:50.689Z,102320.16
2023-02-14T07:20:19.495Z,102333.56
2023-02-14T07:22:47.647Z,102335.03
2023-02-14T07:25:15.562Z,102336.69
2023-02-14T07:27:43.529Z,102334.66
2023-02-14T07:30:12.854Z,102340.44
2023-02-14T07:32:41.351Z,102341.31
2023-02-14T07:35:11.351Z,102327.72
2023-02-14T07:37:39.152Z,102330.75
2023-02-14T07:40:14.647Z,102337.81
2023-02-14T07:42:43.756Z,102340.91
2023-02-14T07:45:21.747Z,102334.25
2023-02-14T07:47:51.476Z,102325.09
2023-02-14T07:50:21.679Z,102343.38
2023-02-14T07:52:49.654Z,102338.97
2023-02-14T07:55:17.726Z,102338.78
2023-02-14T07:57:45.605Z,102334.31
2023-02-14T08:00:14.992Z,102320.16
2023-02-14T08:02:42.983Z,102339.34
2023-02-14T08:05:11.390Z,102334.22
2023-02-14T08:07:40.628Z,102299.00
2023-02-14T08:10:10.524Z,102293.78
2023-02-14T08:13:02.022Z,102333.47
2023-02-14T08:15:48.794Z,102289.28
2023-02-14T08:18:18.063Z,102293.66
2023-02-14T08:20:46.105Z,102322.13
2023-02-14T08:23:15.564Z,102325.16
2023-02-14T08:25:43.566Z,102328.25
2023-02-14T08:28:13.778Z,102324.22
2023-02-14T08:30:42.610Z,102329.66
2023-02-14T08:33:10.638Z,102331.19
2023-02-14T08:35:38.836Z,102327.09
2023-02-14T08:38:07.571Z,102322.25
2023-02-14T08:40:37.601Z,102329.56
2023-02-14T08:43:06.044Z,102212.66
2023-02-14T08:45:34.333Z,102274.78
2023-02-14T08:48:04.221Z,102315.31
2023-02-14T08:50:32.288Z,102322.03
2023-02-14T08:53:00.483Z,102321.53
2023-02-14T08:55:28.744Z,102289.31
2023-02-14T08:57:58.747Z,102312.53
2023-02-14T09:00:27.145Z,102304.81
2023-02-14T09:02:55.595Z,102316.34
2023-02-14T09:05:24.465Z,102296.00
2023-02-14T09:07:52.529Z,102310.53
2023-02-14T09:10:20.449Z,102311.06
2023-02-14T09:12:48.332Z,102307.72
2023-02-14T09:15:17.595Z,102304.25
2023-02-14T09:17:45.842Z,102307.28
2023-02-14T09:20:16.885Z,102300.53
2023-02-14T09:22:46.132Z,102279.50
2023-02-14T09:25:15.792Z,102293.88
2023-02-14T09:27:43.766Z,102302.69
2023-02-14T09:30:12.846Z,102294.25
2023-02-14T09:32:42.167Z,102162.34
2023-02-14T09:35:27.249Z,102261.78
2023-02-14T09:37:56.088Z,102275.63
2023-02-14T09:40:25.511Z,102279.34
2023-02-14T09:43:02.046Z,102144.56
2023-02-14T09:45:32.083Z,102261.97
2023-02-14T09:48:04.832Z,102264.00
2023-02-14T09:50:38.021Z,102271.41
2023-02-14T09:53:14.378Z,102218.03
2023-02-14T09:55:48.299Z,102272.72
2023-02-14T09:58:20.388Z,102247.91
2023-02-14T10:00:53.929Z,102162.63
2023-02-14T10:04:00.996Z,102263.84
2023-02-14T10:06:44.016Z,102264.81
2023-02-14T10:09:23.620Z,102271.25
2023-02-14T10:11:51.727Z,102252.63
2023-02-14T10:14:22.092Z,102258.06
2023-02-14T10:16:54.835Z,102261.66
2023-02-14T10:19:27.616Z,102263.56
2023-02-14T10:22:00.613Z,102233.28
2023-02-14T10:24:32.512Z,102262.03
2023-02-14T10:27:12.043Z,102261.22
2023-02-14T10:29:40.735Z,102258.69
2023-02-14T10:32:15.755Z,102253.44
2023-02-14T10:34:48.892Z,102256.13
2023-02-14T10:37:33.342Z,102221.41
2023-02-14T10:40:15.988Z,102233.91
2023-02-14T10:42:55.458Z,102239.38
2023-02-14T10:45:33.196Z,102250.06
2023-02-14T10:48:06.958Z,102197.53
2023-02-14T10:50:44.789Z,102236.72
2023-02-14T10:53:20.497Z,102177.00
2023-02-14T10:55:54.948Z,102235.88
2023-02-14T10:58:24.690Z,102143.22
2023-02-14T11:01:02.444Z,102229.75
2023-02-14T11:03:31.289Z,102220.84
2023-02-14T11:06:00.700Z,102195.00
2023-02-14T11:08:32.768Z,102203.06
2023-02-14T11:11:09.136Z,102218.25
2023-02-14T11:13:39.022Z,102215.56
2023-02-14T11:16:08.927Z,102220.00
2023-02-14T11:18:39.609Z,102144.31
2023-02-14T11:21:11.159Z,102220.06
2023-02-14T11:23:42.199Z,102212.03
2023-02-14T11:26:16.467Z,102095.38
2023-02-14T11:28:53.296Z,102210.25
2023-02-14T11:31:30.496Z,102202.22
2023-02-14T11:33:59.723Z,102200.41
2023-02-14T11:36:30.666Z,102203.13
2023-02-14T11:39:10.081Z,102192.41
2023-02-14T11:41:48.447Z,102168.34
2023-02-14T11:44:22.821Z,102180.84
2023-02-14T11:46:53.846Z,102177.25
2023-02-14T11:49:31.575Z,102162.09
2023-02-14T11:52:10.448Z,102171.00
2023-02-14T11:54:40.563Z,102159.38
2023-02-14T11:57:13.322Z,102086.41
2023-02-14T11:59:45.107Z,102147.78
2023-02-14T12:02:25.005Z,102138.88
2023-02-14T12:04:57.062Z,102137.97
2023-02-14T12:07:30.670Z,102134.34
2023-02-14T12:10:24.298Z,102085.38
2023-02-14T12:12:55.867Z,102125.38
2023-02-14T12:15:34.368Z,102119.13
2023-02-14T12:18:30.934Z,102124.44
2023-02-14T12:21:05.328Z,102118.16
2023-02-14T12:23:41.988Z,102103.91
2023-02-14T12:26:18.888Z,102107.44
2023-02-14T12:28:51.171Z,102112.75
2023-02-14T12:31:20.308Z,102111.84
2023-02-14T12:33:50.458Z,102109.16
2023-02-14T12:36:29.685Z,102099.22
2023-02-14T12:39:08.456Z,102098.22
2023-02-14T12:41:47.121Z,102095.59
2023-02-14T12:44:22.405Z,102084.06
2023-02-14T12:47:11.277Z,102097.38
2023-02-14T12:50:00.362Z,102091.09
2023-02-14T12:52:45.334Z,102086.63
2023-02-14T12:55:32.277Z,102058.97
2023-02-14T12:58:07.088Z,102058.94
2023-02-14T13:00:52.380Z,102057.16
2023-02-14T13:04:02.953Z,102062.50
2023-02-14T13:06:32.050Z,102070.41
2023-02-14T13:09:14.658Z,102066.75
2023-02-14T13:11:52.918Z,102063.19
2023-02-14T13:14:44.069Z,101967.22
2023-02-14T13:17:21.553Z,101946.78
2023-02-14T13:19:58.747Z,102042.63
2023-02-14T13:22:30.950Z,102006.16
2023-02-14T13:25:02.567Z,102032.69
2023-02-14T13:27:34.051Z,101921.75
2023-02-14T13:30:06.271Z,102024.63
2023-02-14T13:32:40.064Z,102018.47
2023-02-14T13:35:09.292Z,102014.03
2023-02-14T13:37:38.142Z,102014.88
2023-02-14T13:40:09.433Z,102014.88
2023-02-14T13:42:56.438Z,102012.28
2023-02-14T13:45:57.768Z,102008.63
2023-02-14T13:48:27.548Z,101972.22
2023-02-14T13:50:58.518Z,102008.63
2023-02-14T13:53:38.866Z,101991.63
2023-02-14T13:56:35.707Z,102002.34
2023-02-14T13:59:06.298Z,101923.41
2023-02-14T14:01:40.709Z,101989.88
2023-02-14T14:04:35.151Z,101992.66
2023-02-14T14:07:23.202Z,101988.94
2023-02-14T14:10:02.780Z,101983.53
2023-02-14T14:12:42.637Z,101975.50
2023-02-14T14:15:16.653Z,101964.88
2023-02-14T14:17:47.721Z,101982.78
2023-02-14T14:20:47.776Z,101964.22
2023-02-14T14:23:34.816Z,101974.78
2023-02-14T14:26:03.328Z,101910.91
2023-02-14T14:28:34.320Z,101945.50
2023-02-14T14:31:02.406Z,101979.34
2023-02-14T14:33:32.511Z,101972.16
2023-02-14T14:36:03.094Z,101965.94
2023-02-14T14:38:32.313Z,101968.63
2023-02-14T14:41:01.057Z,101934.09
2023-02-14T14:43:34.595Z,101962.44
2023-02-14T14:46:04.350Z,101955.31
2023-02-14T14:48:36.942Z,101942.81
2023-02-14T14:51:07.151Z,101948.16
2023-02-14T14:53:44.349Z,101909.22
2023-02-14T14:56:13.978Z,101939.38
2023-02-14T14:58:43.327Z,101904.75
2023-02-14T15:01:21.188Z,101947.41
2023-02-14T15:03:49.892Z,101934.91
2023-02-14T15:06:22.301Z,101938.59
2023-02-14T15:08:51.463Z,101926.19
2023-02-14T15:11:41.838Z,101940.41
2023-02-14T15:14:12.682Z,101940.53
2023-02-14T15:16:46.621Z,101933.38
2023-02-14T15:19:22.990Z,101929.81
2023-02-14T15:21:51.850Z,101936.28
2023-02-14T15:24:21.240Z,101932.66
2023-02-14T15:26:53.413Z,101923.75
2023-02-14T15:29:25.275Z,101928.28
2023-02-14T15:31:54.259Z,101921.25
2023-02-14T15:34:25.492Z,101932.88
2023-02-14T15:36:57.591Z,101924.88
2023-02-14T15:39:33.641Z,101932.09
2023-02-14T15:42:01.546Z,101928.56
2023-02-14T15:44:31.102Z,101913.44
2023-02-14T15:47:03.284Z,101922.44
2023-02-14T15:49:37.197Z,101933.16
2023-02-14T15:52:07.676Z,101927.88
2023-02-14T15:54:39.185Z,101924.38
2023-02-14T15:57:17.374Z,101873.75
2023-02-14T15:59:47.705Z,101929.75
2023-02-14T16:02:27.082Z,101922.69
2023-02-14T16:04:55.426Z,101807.22
2023-02-14T16:07:25.962Z,101821.44
2023-02-14T16:10:20.866Z,101922.69
2023-02-14T16:12:57.636Z,101922.72
2023-02-14T16:15:28.685Z,101930.75
2023-02-14T16:17:56.534Z,101923.66
2023-02-14T16:20:38.451Z,101918.34
2023-02-14T16:23:21.261Z,101931.72
2023-02-14T16:25:49.511Z,101934.38
2023-02-14T16:28:18.170Z,101914.81
2023-02-14T16:30:54.063Z,101745.97
2023-02-14T16:33:24.611Z,101921.03
2023-02-14T16:35:52.698Z,101907.66
2023-02-14T16:38:22.757Z,101929.91
2023-02-14T16:40:53.409Z,101923.66
2023-02-14T16:43:22.160Z,101837.34
2023-02-14T16:45:51.670Z,101928.91
2023-02-14T16:48:19.667Z,101913.75
2023-02-14T16:50:47.987Z,101937.72
2023-02-14T16:53:25.979Z,101894.16
2023-02-14T16:55:55.516Z,101937.66
2023-02-14T16:58:27.870Z,101834.50
2023-02-14T17:00:58.743Z,101938.56
2023-02-14T17:03:27.341Z,101948.25
2023-02-14T17:05:56.747Z,101925.94
2023-02-14T17:08:25.458Z,101721.31
2023-02-14T17:10:53.862Z,101924.16
2023-02-14T17:13:25.270Z,101906.34
2023-02-14T17:15:53.930Z,101871.50
2023-02-14T17:18:25.634Z,101935.53
2023-02-14T17:20:53.642Z,101920.34
2023-02-14T17:23:23.425Z,101932.78
2023-02-14T17:25:51.776Z,101922.91
2023-02-14T17:28:19.957Z,101939.75
2023-02-14T17:30:48.013Z,101937.88
2023-02-14T17:33:16.198Z,101928.81
2023-02-14T17:35:45.546Z,101900.16
2023-02-14T17:38:13.424Z,101937.53
2023-02-14T17:40:41.620Z,101883.25
2023-02-14T17:43:09.700Z,101945.63
2023-02-14T17:45:37.784Z,101935.81
2023-02-14T17:48:06.068Z,101909.81
2023-02-14T17:50:34.007Z,101934.66
2023-02-14T17:53:03.299Z,101690.63
2023-02-14T17:55:31.216Z,101936.34
2023-02-14T17:57:59.129Z,101926.53
2023-02-14T18:00:27.257Z,101935.41
2023-02-14T18:02:55.413Z,101936.16
2023-02-14T18:05:23.629Z,101905.88
2023-02-14T18:07:53.080Z,101851.56
2023-02-14T18:10:22.498Z,101928.25
2023-02-14T18:12:50.389Z,101930.06
2023-02-14T18:15:18.298Z,101934.44
2023-02-14T18:17:50.343Z,101882.66
2023-02-14T18:20:18.597Z,101906.59
2023-02-14T18:22:46.669Z,101869.88
2023-02-14T18:25:14.457Z,101924.13
2023-02-14T18:27:43.815Z,101932.91
2023-02-14T18:30:12.542Z,101927.38
2023-02-14T18:32:40.710Z,101898.78
2023-02-14T18:35:09.027Z,101907.63
2023-02-14T18:37:36.890Z,101905.81
2023-02-14T18:40:04.903Z,101901.25
2023-02-14T18:42:32.759Z,101899.22
2023-02-14T18:45:02.081Z,101918.88
2023-02-14T18:47:30.000Z,101891.09
2023-02-14T18:49:57.928Z,101908.00
2023-02-14T18:52:26.234Z,101917.84
2023-02-14T18:54:54.156Z,101914.34
2023-02-14T18:57:21.972Z,101848.47
2023-02-14T18:59:49.876Z,101899.16
2023-02-14T19:02:19.471Z,101891.44
2023-02-14T19:04:47.563Z,101907.34
2023-02-14T19:07:15.621Z,101898.44
2023-02-14T19:09:43.711Z,101871.44
2023-02-14T19:12:11.751Z,101894.72
2023-02-14T19:14:39.993Z,101895.34
2023-02-14T19:17:07.993Z,101892.63
2023-02-14T19:19:37.454Z,101893.63
2023-02-14T19:22:05.773Z,101863.41
2023-02-14T19:24:33.704Z,101878.56
2023-02-14T19:27:01.608Z,101885.53
2023-02-14T19:29:29.398Z,101888.28
2023-02-14T19:31:57.816Z,101897.88
2023-02-14T19:34:29.492Z,101889.00
2023-02-14T19:37:02.383Z,101880.94
2023-02-14T19:39:32.441Z,101895.06
2023-02-14T19:42:01.294Z,101854.06
2023-02-14T19:44:31.027Z,101866.47
2023-02-14T19:47:04.149Z,101841.53
2023-02-14T19:49:36.043Z,101657.84
2023-02-14T19:52:09.509Z,101881.69
2023-02-14T19:54:42.121Z,101817.38
2023-02-14T19:57:13.873Z,101888.59
2023-02-14T19:59:42.012Z,101861.00
2023-02-14T20:02:14.831Z,101873.59
2023-02-14T20:04:42.688Z,101880.69
2023-02-14T20:07:12.899Z,101854.66
2023-02-14T20:09:40.667Z,101867.41
2023-02-14T20:12:08.875Z,101868.22
2023-02-14T20:14:50.187Z,101863.91
2023-02-14T20:17:19.309Z,101865.38
2023-02-14T20:19:47.290Z,101854.78
2023-02-14T20:22:16.556Z,101731.47
2023-02-14T20:24:44.469Z,101750.19
2023-02-14T20:27:12.464Z,101850.22
2023-02-14T20:29:43.277Z,101870.72
2023-02-14T20:32:16.674Z,101846.03
2023-02-14T20:34:44.494Z,101831.69
2023-02-14T20:37:12.766Z,101850.75
2023-02-14T20:39:42.177Z,101857.47
2023-02-14T20:42:10.706Z,101859.84
2023-02-14T20:44:38.685Z,101869.66
2023-02-14T20:47:06.748Z,101865.28
2023-02-14T20:49:35.824Z,101865.38
2023-02-14T20:52:04.793Z,101868.06
2023-02-14T20:54:32.876Z,101814.53
2023-02-14T20:57:02.133Z,101802.06
2023-02-14T20:59:30.094Z,101855.84
2023-02-14T21:02:00.614Z,101860.16
2023-02-14T21:04:29.873Z,101816.34
2023-02-14T21:07:00.245Z,101855.38
2023-02-14T21:09:28.335Z,101851.81
2023-02-14T21:11:58.042Z,101705.19
2023-02-14T21:14:27.668Z,101863.16
2023-02-14T21:16:55.595Z,101860.69
2023-02-14T21:19:23.453Z,101821.34
2023-02-14T21:21:51.756Z,101853.34
2023-02-14T21:24:20.049Z,101831.94
2023-02-14T21:26:48.182Z,101850.56
2023-02-14T21:29:16.092Z,101851.69
2023-02-14T21:31:45.675Z,101847.03
2023-02-14T21:34:16.188Z,101848.84
2023-02-14T21:36:44.239Z,101849.69
2023-02-14T21:39:12.173Z,101842.69
2023-02-14T21:41:40.387Z,101849.13
2023-02-14T21:44:08.542Z,101844.72
2023-02-14T21:46:39.423Z,101836.63
2023-02-14T21:49:26.309Z,101836.81
2023-02-14T21:51:54.243Z,101822.19
2023-02-14T21:54:22.362Z,101795.50
2023-02-14T21:56:50.412Z,101833.75
2023-02-14T21:59:18.260Z,101836.22
2023-02-14T22:01:46.480Z,101691.72
2023-02-14T22:04:16.852Z,101832.44
2023-02-14T22:06:44.920Z,101833.84
2023-02-14T22:09:15.044Z,101832.72
2023-02-14T22:11:42.874Z,101638.19
2023-02-14T22:14:11.238Z,101828.66
2023-02-14T22:16:39.265Z,101819.84
2023-02-14T22:19:08.497Z,101533.63
2023-02-14T22:21:38.069Z,101814.56
2023-02-14T22:24:06.402Z,101809.22
2023-02-14T22:26:38.626Z,101821.06
2023-02-14T22:29:07.573Z,101824.78
2023-02-14T22:31:38.659Z,101823.31
2023-02-14T22:34:08.228Z,101822.88
2023-02-14T22:36:37.484Z,101806.28
2023-02-14T22:39:06.128Z,101812.91
2023-02-14T22:41:37.667Z,101811.25
2023-02-14T22:44:06.653Z,101802.38
2023-02-14T22:46:36.718Z,101813.03
2023-02-14T22:49:05.286Z,101811.38
2023-02-14T22:51:35.513Z,101774.69
2023-02-14T22:54:05.777Z,101815.63
2023-02-14T22:56:35.404Z,101821.75
2023-02-14T22:59:06.797Z,101619.50
2023-02-14T23:01:37.132Z,101802.81
2023-02-14T23:04:06.001Z,101822.69
2023-02-14T23:06:35.861Z,101826.13
2023-02-14T23:09:06.879Z,101834.66
2023-02-14T23:11:37.227Z,101603.50
2023-02-14T23:14:23.419Z,101685.44
2023-02-14T23:17:21.059Z,101829.97
2023-02-14T23:20:06.722Z,101828.13
2023-02-14T23:22:36.491Z,101826.19
2023-02-14T23:25:08.176Z,101828.31
2023-02-14T23:27:38.545Z,101830.91
2023-02-14T23:30:08.579Z,101824.78
2023-02-14T23:32:36.525Z,101831.69
2023-02-14T23:35:04.747Z,101820.16
2023-02-14T23:37:33.679Z,101817.41
2023-02-14T23:40:01.533Z,101695.34
2023-02-14T23:42:30.764Z,101818.16
2023-02-14T23:45:18.778Z,101801.19
2023-02-14T23:47:46.670Z,101658.41
2023-02-14T23:50:14.516Z,101665.50
2023-02-14T23:52:44.407Z,101635.19
2023-02-14T23:55:12.525Z,101807.44
2023-02-14T23:57:41.969Z,101801.00
